sensor_id;sensor_type;location;lat;lon;timestamp;P1;durP1;ratioP1;P2;durP2;ratioP2
68765;SDS011;55756;45.582;11.484;2024-03-29T00:01:41;22.67;;;15.00;;
68765;SDS011;55756;45.582;11.484;2024-03-29T00:04:08;25.08;;;14.80;;
68765;SDS011;55756;45.582;11.484;2024-03-29T00:06:34;21.60;;;15.50;;
68765;SDS011;55756;45.582;11.484;2024-03-29T00:09:00;23.48;;;16.00;;
68765;SDS011;55756;45.582;11.484;2024-03-29T00:11:26;23.20;;;14.52;;
68765;SDS011;55756;45.582;11.484;2024-03-29T00:13:56;19.35;;;14.60;;
68765;SDS011;55756;45.582;11.484;2024-03-29T00:16:22;22.55;;;15.25;;
68765;SDS011;55756;45.582;11.484;2024-03-29T00:18:51;20.63;;;14.98;;
68765;SDS011;55756;45.582;11.484;2024-03-29T00:21:17;20.23;;;14.13;;
68765;SDS011;55756;45.582;11.484;2024-03-29T00:23:43;20.10;;;15.10;;
68765;SDS011;55756;45.582;11.484;2024-03-29T00:26:12;21.70;;;15.95;;
68765;SDS011;55756;45.582;11.484;2024-03-29T00:28:38;22.42;;;14.93;;
68765;SDS011;55756;45.582;11.484;2024-03-29T00:31:04;23.73;;;15.73;;
68765;SDS011;55756;45.582;11.484;2024-03-29T00:33:30;21.17;;;15.43;;
68765;SDS011;55756;45.582;11.484;2024-03-29T00:35:56;24.50;;;16.15;;
68765;SDS011;55756;45.582;11.484;2024-03-29T00:38:21;22.95;;;15.00;;
68765;SDS011;55756;45.582;11.484;2024-03-29T00:40:47;21.55;;;15.48;;
68765;SDS011;55756;45.582;11.484;2024-03-29T00:43:13;23.85;;;14.68;;
68765;SDS011;55756;45.582;11.484;2024-03-29T00:45:38;22.55;;;14.95;;
68765;SDS011;55756;45.582;11.484;2024-03-29T00:48:05;20.75;;;14.80;;
68765;SDS011;55756;45.582;11.484;2024-03-29T00:50:31;21.58;;;15.35;;
68765;SDS011;55756;45.582;11.484;2024-03-29T00:52:57;21.88;;;15.48;;
68765;SDS011;55756;45.582;11.484;2024-03-29T00:55:23;22.98;;;14.98;;
68765;SDS011;55756;45.582;11.484;2024-03-29T00:57:48;21.98;;;15.10;;
68765;SDS011;55756;45.582;11.484;2024-03-29T01:00:14;23.08;;;16.30;;
68765;SDS011;55756;45.582;11.484;2024-03-29T01:02:40;20.98;;;14.93;;
68765;SDS011;55756;45.582;11.484;2024-03-29T01:05:06;20.98;;;15.38;;
68765;SDS011;55756;45.582;11.484;2024-03-29T01:07:32;22.73;;;16.23;;
68765;SDS011;55756;45.582;11.484;2024-03-29T01:09:58;23.73;;;16.88;;
68765;SDS011;55756;45.582;11.484;2024-03-29T01:12:24;20.88;;;15.52;;
68765;SDS011;55756;45.582;11.484;2024-03-29T01:14:50;23.58;;;16.38;;
68765;SDS011;55756;45.582;11.484;2024-03-29T01:17:16;23.45;;;15.85;;
68765;SDS011;55756;45.582;11.484;2024-03-29T01:19:41;21.90;;;15.70;;
68765;SDS011;55756;45.582;11.484;2024-03-29T01:22:07;23.58;;;16.08;;
68765;SDS011;55756;45.582;11.484;2024-03-29T01:24:33;22.58;;;16.17;;
68765;SDS011;55756;45.582;11.484;2024-03-29T01:26:59;25.90;;;16.30;;
68765;SDS011;55756;45.582;11.484;2024-03-29T01:29:25;22.92;;;16.70;;
68765;SDS011;55756;45.582;11.484;2024-03-29T01:31:51;24.55;;;17.40;;
68765;SDS011;55756;45.582;11.484;2024-03-29T01:34:16;21.73;;;16.40;;
68765;SDS011;55756;45.582;11.484;2024-03-29T01:36:42;25.70;;;18.85;;
68765;SDS011;55756;45.582;11.484;2024-03-29T01:39:08;25.33;;;18.25;;
68765;SDS011;55756;45.582;11.484;2024-03-29T01:41:38;26.52;;;17.65;;
68765;SDS011;55756;45.582;11.484;2024-03-29T01:44:04;28.15;;;18.48;;
68765;SDS011;55756;45.582;11.484;2024-03-29T01:46:30;27.23;;;19.00;;
68765;SDS011;55756;45.582;11.484;2024-03-29T01:49:00;26.17;;;19.08;;
68765;SDS011;55756;45.582;11.484;2024-03-29T01:51:26;25.40;;;18.50;;
68765;SDS011;55756;45.582;11.484;2024-03-29T01:53:52;27.30;;;19.80;;
68765;SDS011;55756;45.582;11.484;2024-03-29T01:56:20;26.85;;;18.60;;
68765;SDS011;55756;45.582;11.484;2024-03-29T01:58:47;26.45;;;19.45;;
68765;SDS011;55756;45.582;11.484;2024-03-29T02:01:16;28.75;;;19.30;;
68765;SDS011;55756;45.582;11.484;2024-03-29T02:03:42;27.65;;;19.88;;
68765;SDS011;55756;45.582;11.484;2024-03-29T02:06:08;29.10;;;20.13;;
68765;SDS011;55756;45.582;11.484;2024-03-29T02:08:35;30.60;;;20.45;;
68765;SDS011;55756;45.582;11.484;2024-03-29T02:11:02;30.35;;;21.02;;
68765;SDS011;55756;45.582;11.484;2024-03-29T02:13:29;31.98;;;21.33;;
68765;SDS011;55756;45.582;11.484;2024-03-29T02:15:55;29.55;;;20.52;;
68765;SDS011;55756;45.582;11.484;2024-03-29T02:18:20;29.00;;;20.25;;
68765;SDS011;55756;45.582;11.484;2024-03-29T02:20:46;29.27;;;20.70;;
68765;SDS011;55756;45.582;11.484;2024-03-29T02:23:13;32.40;;;21.40;;
68765;SDS011;55756;45.582;11.484;2024-03-29T02:25:51;27.50;;;19.15;;
68765;SDS011;55756;45.582;11.484;2024-03-29T02:28:17;32.58;;;20.45;;
68765;SDS011;55756;45.582;11.484;2024-03-29T02:30:43;29.85;;;19.65;;
68765;SDS011;55756;45.582;11.484;2024-03-29T02:33:08;32.72;;;20.52;;
68765;SDS011;55756;45.582;11.484;2024-03-29T02:35:34;29.88;;;20.13;;
68765;SDS011;55756;45.582;11.484;2024-03-29T02:38:00;28.48;;;19.33;;
68765;SDS011;55756;45.582;11.484;2024-03-29T02:40:25;31.35;;;19.42;;
68765;SDS011;55756;45.582;11.484;2024-03-29T02:42:51;31.30;;;20.83;;
68765;SDS011;55756;45.582;11.484;2024-03-29T02:45:17;29.90;;;20.02;;
68765;SDS011;55756;45.582;11.484;2024-03-29T02:47:43;27.73;;;19.15;;
68765;SDS011;55756;45.582;11.484;2024-03-29T02:50:09;23.90;;;21.27;;
68765;SDS011;55756;45.582;11.484;2024-03-29T02:52:35;28.73;;;17.90;;
68765;SDS011;55756;45.582;11.484;2024-03-29T02:55:01;26.73;;;17.50;;
68765;SDS011;55756;45.582;11.484;2024-03-29T02:57:27;27.73;;;18.40;;
68765;SDS011;55756;45.582;11.484;2024-03-29T02:59:53;26.85;;;17.15;;
68765;SDS011;55756;45.582;11.484;2024-03-29T03:02:18;27.75;;;17.60;;
68765;SDS011;55756;45.582;11.484;2024-03-29T03:04:44;26.90;;;17.75;;
68765;SDS011;55756;45.582;11.484;2024-03-29T03:07:10;26.40;;;17.27;;
68765;SDS011;55756;45.582;11.484;2024-03-29T03:09:54;27.30;;;17.45;;
68765;SDS011;55756;45.582;11.484;2024-03-29T03:12:38;24.42;;;16.55;;
68765;SDS011;55756;45.582;11.484;2024-03-29T03:15:05;24.48;;;16.65;;
68765;SDS011;55756;45.582;11.484;2024-03-29T03:17:31;27.55;;;17.90;;
68765;SDS011;55756;45.582;11.484;2024-03-29T03:19:57;24.27;;;16.42;;
68765;SDS011;55756;45.582;11.484;2024-03-29T03:22:23;20.42;;;18.13;;
68765;SDS011;55756;45.582;11.484;2024-03-29T03:24:49;24.08;;;15.23;;
68765;SDS011;55756;45.582;11.484;2024-03-29T03:27:15;22.07;;;14.43;;
68765;SDS011;55756;45.582;11.484;2024-03-29T03:29:41;21.88;;;14.30;;
68765;SDS011;55756;45.582;11.484;2024-03-29T03:32:06;23.35;;;14.18;;
68765;SDS011;55756;45.582;11.484;2024-03-29T03:34:34;22.10;;;14.55;;
68765;SDS011;55756;45.582;11.484;2024-03-29T03:36:59;23.45;;;14.55;;
68765;SDS011;55756;45.582;11.484;2024-03-29T03:39:25;20.67;;;13.93;;
68765;SDS011;55756;45.582;11.484;2024-03-29T03:41:51;21.08;;;14.30;;
68765;SDS011;55756;45.582;11.484;2024-03-29T03:44:17;21.90;;;14.13;;
68765;SDS011;55756;45.582;11.484;2024-03-29T03:46:42;22.10;;;14.07;;
68765;SDS011;55756;45.582;11.484;2024-03-29T03:49:08;22.20;;;14.30;;
68765;SDS011;55756;45.582;11.484;2024-03-29T03:51:34;24.05;;;15.50;;
68765;SDS011;55756;45.582;11.484;2024-03-29T03:54:00;24.83;;;15.32;;
68765;SDS011;55756;45.582;11.484;2024-03-29T03:56:26;25.52;;;16.05;;
68765;SDS011;55756;45.582;11.484;2024-03-29T03:58:52;20.70;;;18.50;;
68765;SDS011;55756;45.582;11.484;2024-03-29T04:01:17;25.63;;;16.42;;
68765;SDS011;55756;45.582;11.484;2024-03-29T04:03:43;26.83;;;17.13;;
68765;SDS011;55756;45.582;11.484;2024-03-29T04:06:09;23.08;;;20.15;;
68765;SDS011;55756;45.582;11.484;2024-03-29T04:08:34;27.40;;;17.35;;
68765;SDS011;55756;45.582;11.484;2024-03-29T04:11:03;29.38;;;19.15;;
68765;SDS011;55756;45.582;11.484;2024-03-29T04:13:29;28.67;;;19.42;;
68765;SDS011;55756;45.582;11.484;2024-03-29T04:16:05;29.08;;;18.70;;
68765;SDS011;55756;45.582;11.484;2024-03-29T04:18:31;32.15;;;19.92;;
68765;SDS011;55756;45.582;11.484;2024-03-29T04:20:58;29.40;;;19.38;;
68765;SDS011;55756;45.582;11.484;2024-03-29T04:23:27;39.42;;;25.38;;
68765;SDS011;55756;45.582;11.484;2024-03-29T04:25:53;70.13;;;36.97;;
68765;SDS011;55756;45.582;11.484;2024-03-29T04:28:20;130.27;;;60.17;;
68765;SDS011;55756;45.582;11.484;2024-03-29T04:30:53;132.60;;;62.78;;
68765;SDS011;55756;45.582;11.484;2024-03-29T04:33:26;235.98;;;94.30;;
68765;SDS011;55756;45.582;11.484;2024-03-29T04:35:56;109.97;;;50.15;;
68765;SDS011;55756;45.582;11.484;2024-03-29T04:38:23;56.83;;;32.42;;
68765;SDS011;55756;45.582;11.484;2024-03-29T04:40:50;46.05;;;25.77;;
68765;SDS011;55756;45.582;11.484;2024-03-29T04:43:17;36.03;;;21.48;;
68765;SDS011;55756;45.582;11.484;2024-03-29T04:45:46;32.95;;;20.63;;
68765;SDS011;55756;45.582;11.484;2024-03-29T04:50:38;32.53;;;20.98;;
68765;SDS011;55756;45.582;11.484;2024-03-29T04:53:04;31.17;;;20.45;;
68765;SDS011;55756;45.582;11.484;2024-03-29T04:55:30;30.92;;;20.50;;
68765;SDS011;55756;45.582;11.484;2024-03-29T04:57:55;34.17;;;20.67;;
68765;SDS011;55756;45.582;11.484;2024-03-29T05:00:21;29.15;;;20.15;;
68765;SDS011;55756;45.582;11.484;2024-03-29T05:02:47;31.83;;;20.13;;
68765;SDS011;55756;45.582;11.484;2024-03-29T05:05:13;30.63;;;20.10;;
68765;SDS011;55756;45.582;11.484;2024-03-29T05:07:38;27.65;;;23.27;;
68765;SDS011;55756;45.582;11.484;2024-03-29T05:10:04;32.45;;;20.35;;
68765;SDS011;55756;45.582;11.484;2024-03-29T05:12:35;33.00;;;20.05;;
68765;SDS011;55756;45.582;11.484;2024-03-29T05:15:01;30.50;;;19.73;;
68765;SDS011;55756;45.582;11.484;2024-03-29T05:17:27;36.28;;;21.70;;
68765;SDS011;55756;45.582;11.484;2024-03-29T05:19:53;32.58;;;20.70;;
68765;SDS011;55756;45.582;11.484;2024-03-29T05:22:22;34.92;;;21.90;;
68765;SDS011;55756;45.582;11.484;2024-03-29T05:24:48;29.10;;;24.08;;
68765;SDS011;55756;45.582;11.484;2024-03-29T05:27:17;33.80;;;21.13;;
68765;SDS011;55756;45.582;11.484;2024-03-29T05:29:43;36.42;;;20.83;;
68765;SDS011;55756;45.582;11.484;2024-03-29T05:32:08;33.83;;;21.05;;
68765;SDS011;55756;45.582;11.484;2024-03-29T05:34:34;33.30;;;20.27;;
68765;SDS011;55756;45.582;11.484;2024-03-29T05:37:00;32.92;;;20.83;;
68765;SDS011;55756;45.582;11.484;2024-03-29T05:39:26;32.33;;;20.67;;
68765;SDS011;55756;45.582;11.484;2024-03-29T05:41:51;34.90;;;21.15;;
68765;SDS011;55756;45.582;11.484;2024-03-29T05:44:17;36.30;;;21.55;;
68765;SDS011;55756;45.582;11.484;2024-03-29T05:46:43;37.05;;;22.13;;
68765;SDS011;55756;45.582;11.484;2024-03-29T05:49:08;37.15;;;22.45;;
68765;SDS011;55756;45.582;11.484;2024-03-29T05:51:35;44.75;;;26.55;;
68765;SDS011;55756;45.582;11.484;2024-03-29T05:54:00;78.60;;;39.95;;
68765;SDS011;55756;45.582;11.484;2024-03-29T05:56:30;107.15;;;47.38;;
68765;SDS011;55756;45.582;11.484;2024-03-29T05:58:55;58.65;;;32.47;;
68765;SDS011;55756;45.582;11.484;2024-03-29T06:01:21;48.53;;;28.48;;
68765;SDS011;55756;45.582;11.484;2024-03-29T06:03:50;40.60;;;25.05;;
68765;SDS011;55756;45.582;11.484;2024-03-29T06:06:21;38.65;;;24.10;;
68765;SDS011;55756;45.582;11.484;2024-03-29T06:08:50;36.50;;;22.90;;
68765;SDS011;55756;45.582;11.484;2024-03-29T06:11:16;38.45;;;24.70;;
68765;SDS011;55756;45.582;11.484;2024-03-29T06:13:42;41.15;;;24.85;;
68765;SDS011;55756;45.582;11.484;2024-03-29T06:16:20;38.57;;;23.23;;
68765;SDS011;55756;45.582;11.484;2024-03-29T06:19:05;42.55;;;23.00;;
68765;SDS011;55756;45.582;11.484;2024-03-29T06:21:31;41.20;;;22.85;;
68765;SDS011;55756;45.582;11.484;2024-03-29T06:24:04;37.00;;;22.17;;
68765;SDS011;55756;45.582;11.484;2024-03-29T06:26:40;33.53;;;21.00;;
68765;SDS011;55756;45.582;11.484;2024-03-29T06:29:07;40.15;;;22.05;;
68765;SDS011;55756;45.582;11.484;2024-03-29T06:31:36;37.63;;;21.50;;
68765;SDS011;55756;45.582;11.484;2024-03-29T06:34:01;35.55;;;22.73;;
68765;SDS011;55756;45.582;11.484;2024-03-29T06:36:27;39.40;;;22.40;;
68765;SDS011;55756;45.582;11.484;2024-03-29T06:38:55;37.30;;;22.33;;
68765;SDS011;55756;45.582;11.484;2024-03-29T06:41:21;35.90;;;21.90;;
68765;SDS011;55756;45.582;11.484;2024-03-29T06:43:47;36.70;;;21.52;;
68765;SDS011;55756;45.582;11.484;2024-03-29T06:46:13;34.92;;;21.13;;
68765;SDS011;55756;45.582;11.484;2024-03-29T06:48:40;34.78;;;21.52;;
68765;SDS011;55756;45.582;11.484;2024-03-29T06:51:05;34.17;;;21.13;;
68765;SDS011;55756;45.582;11.484;2024-03-29T06:53:31;37.03;;;20.33;;
68765;SDS011;55756;45.582;11.484;2024-03-29T06:55:59;33.13;;;20.48;;
68765;SDS011;55756;45.582;11.484;2024-03-29T06:58:26;34.05;;;20.63;;
68765;SDS011;55756;45.582;11.484;2024-03-29T07:00:52;34.55;;;20.52;;
68765;SDS011;55756;45.582;11.484;2024-03-29T07:03:18;33.95;;;20.48;;
68765;SDS011;55756;45.582;11.484;2024-03-29T07:05:45;33.10;;;20.48;;
68765;SDS011;55756;45.582;11.484;2024-03-29T07:08:11;35.20;;;20.30;;
68765;SDS011;55756;45.582;11.484;2024-03-29T07:10:37;35.38;;;20.13;;
68765;SDS011;55756;45.582;11.484;2024-03-29T07:13:02;36.83;;;20.40;;
68765;SDS011;55756;45.582;11.484;2024-03-29T07:15:28;37.13;;;20.90;;
68765;SDS011;55756;45.582;11.484;2024-03-29T07:17:54;36.30;;;20.85;;
68765;SDS011;55756;45.582;11.484;2024-03-29T07:20:19;38.10;;;20.58;;
68765;SDS011;55756;45.582;11.484;2024-03-29T07:22:45;35.97;;;21.83;;
68765;SDS011;55756;45.582;11.484;2024-03-29T07:25:11;36.17;;;21.13;;
68765;SDS011;55756;45.582;11.484;2024-03-29T07:27:37;34.92;;;20.15;;
68765;SDS011;55756;45.582;11.484;2024-03-29T07:30:03;32.83;;;19.33;;
68765;SDS011;55756;45.582;11.484;2024-03-29T07:32:29;33.08;;;18.80;;
68765;SDS011;55756;45.582;11.484;2024-03-29T07:34:55;34.15;;;18.98;;
68765;SDS011;55756;45.582;11.484;2024-03-29T07:37:23;34.53;;;19.33;;
68765;SDS011;55756;45.582;11.484;2024-03-29T07:39:49;28.25;;;17.13;;
68765;SDS011;55756;45.582;11.484;2024-03-29T07:42:15;27.63;;;17.00;;
68765;SDS011;55756;45.582;11.484;2024-03-29T07:44:42;28.92;;;15.95;;
68765;SDS011;55756;45.582;11.484;2024-03-29T07:47:08;26.25;;;16.35;;
68765;SDS011;55756;45.582;11.484;2024-03-29T07:49:34;26.98;;;15.60;;
68765;SDS011;55756;45.582;11.484;2024-03-29T07:52:00;24.85;;;15.40;;
68765;SDS011;55756;45.582;11.484;2024-03-29T07:54:30;25.27;;;14.27;;
68765;SDS011;55756;45.582;11.484;2024-03-29T07:56:56;24.48;;;13.90;;
68765;SDS011;55756;45.582;11.484;2024-03-29T07:59:22;22.85;;;13.57;;
68765;SDS011;55756;45.582;11.484;2024-03-29T08:01:48;20.90;;;13.75;;
68765;SDS011;55756;45.582;11.484;2024-03-29T08:04:14;23.70;;;13.43;;
68765;SDS011;55756;45.582;11.484;2024-03-29T08:06:39;20.50;;;11.93;;
68765;SDS011;55756;45.582;11.484;2024-03-29T08:09:05;18.23;;;10.35;;
68765;SDS011;55756;45.582;11.484;2024-03-29T08:11:31;19.98;;;12.18;;
68765;SDS011;55756;45.582;11.484;2024-03-29T08:13:56;18.67;;;11.25;;
68765;SDS011;55756;45.582;11.484;2024-03-29T08:16:22;18.45;;;10.15;;
68765;SDS011;55756;45.582;11.484;2024-03-29T08:18:48;16.48;;;9.50;;
68765;SDS011;55756;45.582;11.484;2024-03-29T08:21:14;18.13;;;10.25;;
68765;SDS011;55756;45.582;11.484;2024-03-29T08:23:40;18.30;;;10.38;;
68765;SDS011;55756;45.582;11.484;2024-03-29T08:26:06;18.77;;;10.35;;
68765;SDS011;55756;45.582;11.484;2024-03-29T08:28:33;18.85;;;8.93;;
68765;SDS011;55756;45.582;11.484;2024-03-29T08:31:09;18.20;;;8.63;;
68765;SDS011;55756;45.582;11.484;2024-03-29T08:33:35;18.00;;;9.57;;
68765;SDS011;55756;45.582;11.484;2024-03-29T08:36:07;24.48;;;12.75;;
68765;SDS011;55756;45.582;11.484;2024-03-29T08:38:33;22.00;;;11.98;;
68765;SDS011;55756;45.582;11.484;2024-03-29T08:41:00;18.27;;;9.88;;
68765;SDS011;55756;45.582;11.484;2024-03-29T08:43:26;20.83;;;10.35;;
68765;SDS011;55756;45.582;11.484;2024-03-29T08:45:52;16.45;;;9.55;;
68765;SDS011;55756;45.582;11.484;2024-03-29T08:48:17;16.35;;;9.18;;
68765;SDS011;55756;45.582;11.484;2024-03-29T08:50:43;16.20;;;9.27;;
68765;SDS011;55756;45.582;11.484;2024-03-29T08:53:09;17.10;;;10.15;;
68765;SDS011;55756;45.582;11.484;2024-03-29T08:55:35;17.83;;;10.50;;
68765;SDS011;55756;45.582;11.484;2024-03-29T08:58:05;19.70;;;10.57;;
68765;SDS011;55756;45.582;11.484;2024-03-29T09:00:31;18.33;;;10.80;;
68765;SDS011;55756;45.582;11.484;2024-03-29T09:02:57;19.65;;;10.88;;
68765;SDS011;55756;45.582;11.484;2024-03-29T09:05:25;19.50;;;11.68;;
68765;SDS011;55756;45.582;11.484;2024-03-29T09:10:18;20.35;;;10.63;;
68765;SDS011;55756;45.582;11.484;2024-03-29T09:12:44;19.40;;;11.02;;
68765;SDS011;55756;45.582;11.484;2024-03-29T09:15:09;20.85;;;11.50;;
68765;SDS011;55756;45.582;11.484;2024-03-29T09:17:42;19.90;;;10.63;;
68765;SDS011;55756;45.582;11.484;2024-03-29T09:20:08;19.98;;;11.48;;
68765;SDS011;55756;45.582;11.484;2024-03-29T09:22:34;17.35;;;10.40;;
68765;SDS011;55756;45.582;11.484;2024-03-29T09:25:00;20.35;;;12.45;;
68765;SDS011;55756;45.582;11.484;2024-03-29T09:27:26;22.10;;;12.55;;
68765;SDS011;55756;45.582;11.484;2024-03-29T09:29:54;23.95;;;13.32;;
68765;SDS011;55756;45.582;11.484;2024-03-29T09:32:21;24.05;;;13.55;;
68765;SDS011;55756;45.582;11.484;2024-03-29T09:34:48;21.00;;;12.60;;
68765;SDS011;55756;45.582;11.484;2024-03-29T09:37:14;20.23;;;12.40;;
68765;SDS011;55756;45.582;11.484;2024-03-29T09:39:40;18.58;;;11.55;;
68765;SDS011;55756;45.582;11.484;2024-03-29T09:42:06;18.60;;;10.82;;
68765;SDS011;55756;45.582;11.484;2024-03-29T09:44:34;19.08;;;9.48;;
68765;SDS011;55756;45.582;11.484;2024-03-29T09:49:28;17.10;;;10.02;;
68765;SDS011;55756;45.582;11.484;2024-03-29T09:51:56;18.02;;;11.73;;
68765;SDS011;55756;45.582;11.484;2024-03-29T09:54:23;17.42;;;9.85;;
68765;SDS011;55756;45.582;11.484;2024-03-29T09:56:51;19.73;;;10.30;;
68765;SDS011;55756;45.582;11.484;2024-03-29T09:59:18;17.48;;;12.05;;
68765;SDS011;55756;45.582;11.484;2024-03-29T10:01:44;19.92;;;10.60;;
68765;SDS011;55756;45.582;11.484;2024-03-29T10:04:10;19.85;;;10.15;;
68765;SDS011;55756;45.582;11.484;2024-03-29T10:06:37;24.85;;;9.77;;
68765;SDS011;55756;45.582;11.484;2024-03-29T10:09:04;16.40;;;9.40;;
68765;SDS011;55756;45.582;11.484;2024-03-29T10:11:30;17.02;;;8.95;;
68765;SDS011;55756;45.582;11.484;2024-03-29T10:13:56;17.10;;;9.35;;
68765;SDS011;55756;45.582;11.484;2024-03-29T10:16:22;14.63;;;9.10;;
68765;SDS011;55756;45.582;11.484;2024-03-29T10:18:49;19.35;;;9.88;;
68765;SDS011;55756;45.582;11.484;2024-03-29T10:21:15;17.65;;;9.20;;
68765;SDS011;55756;45.582;11.484;2024-03-29T10:23:41;16.23;;;9.68;;
68765;SDS011;55756;45.582;11.484;2024-03-29T10:26:08;18.13;;;10.00;;
68765;SDS011;55756;45.582;11.484;2024-03-29T10:28:34;18.55;;;10.57;;
68765;SDS011;55756;45.582;11.484;2024-03-29T10:31:02;18.27;;;10.38;;
68765;SDS011;55756;45.582;11.484;2024-03-29T10:33:32;16.88;;;11.07;;
68765;SDS011;55756;45.582;11.484;2024-03-29T10:35:59;19.33;;;11.70;;
68765;SDS011;55756;45.582;11.484;2024-03-29T10:38:25;24.98;;;12.77;;
68765;SDS011;55756;45.582;11.484;2024-03-29T10:40:52;15.60;;;7.25;;
68765;SDS011;55756;45.582;11.484;2024-03-29T10:43:19;14.27;;;6.78;;
68765;SDS011;55756;45.582;11.484;2024-03-29T10:45:46;15.75;;;6.82;;
68765;SDS011;55756;45.582;11.484;2024-03-29T10:48:14;12.70;;;7.10;;
68765;SDS011;55756;45.582;11.484;2024-03-29T10:50:41;15.68;;;7.32;;
68765;SDS011;55756;45.582;11.484;2024-03-29T10:53:11;13.70;;;9.15;;
68765;SDS011;55756;45.582;11.484;2024-03-29T10:55:38;14.30;;;9.40;;
68765;SDS011;55756;45.582;11.484;2024-03-29T10:58:04;15.75;;;8.48;;
68765;SDS011;55756;45.582;11.484;2024-03-29T11:00:42;13.27;;;8.60;;
68765;SDS011;55756;45.582;11.484;2024-03-29T11:03:13;13.45;;;7.35;;
68765;SDS011;55756;45.582;11.484;2024-03-29T11:05:49;11.13;;;7.20;;
68765;SDS011;55756;45.582;11.484;2024-03-29T11:08:20;13.82;;;7.07;;
68765;SDS011;55756;45.582;11.484;2024-03-29T11:10:49;13.70;;;6.72;;
68765;SDS011;55756;45.582;11.484;2024-03-29T11:13:23;12.57;;;6.75;;
68765;SDS011;55756;45.582;11.484;2024-03-29T11:15:56;11.20;;;7.00;;
68765;SDS011;55756;45.582;11.484;2024-03-29T11:18:22;10.75;;;6.60;;
68765;SDS011;55756;45.582;11.484;2024-03-29T11:20:49;12.13;;;5.75;;
68765;SDS011;55756;45.582;11.484;2024-03-29T11:23:18;9.30;;;5.20;;
68765;SDS011;55756;45.582;11.484;2024-03-29T11:25:46;12.57;;;5.05;;
68765;SDS011;55756;45.582;11.484;2024-03-29T11:28:22;9.95;;;4.95;;
68765;SDS011;55756;45.582;11.484;2024-03-29T11:30:50;11.65;;;5.18;;
68765;SDS011;55756;45.582;11.484;2024-03-29T11:33:30;11.00;;;5.13;;
68765;SDS011;55756;45.582;11.484;2024-03-29T11:35:57;11.52;;;4.80;;
68765;SDS011;55756;45.582;11.484;2024-03-29T11:38:30;10.30;;;4.93;;
68765;SDS011;55756;45.582;11.484;2024-03-29T11:41:01;12.23;;;5.13;;
68765;SDS011;55756;45.582;11.484;2024-03-29T11:43:29;10.48;;;5.15;;
68765;SDS011;55756;45.582;11.484;2024-03-29T11:45:55;11.93;;;3.97;;
68765;SDS011;55756;45.582;11.484;2024-03-29T11:48:26;13.05;;;6.25;;
68765;SDS011;55756;45.582;11.484;2024-03-29T11:53:19;14.95;;;4.38;;
68765;SDS011;55756;45.582;11.484;2024-03-29T11:55:45;16.30;;;5.53;;
68765;SDS011;55756;45.582;11.484;2024-03-29T11:58:11;13.15;;;7.20;;
68765;SDS011;55756;45.582;11.484;2024-03-29T12:00:38;14.98;;;6.18;;
68765;SDS011;55756;45.582;11.484;2024-03-29T12:05:31;11.50;;;4.80;;
68765;SDS011;55756;45.582;11.484;2024-03-29T12:07:58;18.30;;;9.80;;
68765;SDS011;55756;45.582;11.484;2024-03-29T12:10:27;18.52;;;7.43;;
68765;SDS011;55756;45.582;11.484;2024-03-29T12:12:57;24.30;;;15.13;;
68765;SDS011;55756;45.582;11.484;2024-03-29T12:15:23;23.83;;;9.48;;
68765;SDS011;55756;45.582;11.484;2024-03-29T12:17:53;16.50;;;6.32;;
68765;SDS011;55756;45.582;11.484;2024-03-29T12:20:30;13.98;;;5.07;;
68765;SDS011;55756;45.582;11.484;2024-03-29T12:23:00;11.85;;;4.75;;
68765;SDS011;55756;45.582;11.484;2024-03-29T12:25:28;12.98;;;4.00;;
68765;SDS011;55756;45.582;11.484;2024-03-29T12:27:54;11.60;;;4.40;;
68765;SDS011;55756;45.582;11.484;2024-03-29T12:30:20;11.90;;;4.60;;
68765;SDS011;55756;45.582;11.484;2024-03-29T12:32:47;13.50;;;4.57;;
68765;SDS011;55756;45.582;11.484;2024-03-29T12:35:13;13.02;;;4.00;;
68765;SDS011;55756;45.582;11.484;2024-03-29T12:37:49;13.00;;;3.95;;
68765;SDS011;55756;45.582;11.484;2024-03-29T12:40:17;12.50;;;3.70;;
68765;SDS011;55756;45.582;11.484;2024-03-29T12:42:53;12.80;;;4.28;;
68765;SDS011;55756;45.582;11.484;2024-03-29T12:45:19;14.18;;;5.68;;
68765;SDS011;55756;45.582;11.484;2024-03-29T12:47:48;14.73;;;4.68;;
68765;SDS011;55756;45.582;11.484;2024-03-29T12:50:23;13.35;;;4.80;;
68765;SDS011;55756;45.582;11.484;2024-03-29T12:52:53;12.98;;;4.43;;
68765;SDS011;55756;45.582;11.484;2024-03-29T12:55:23;11.98;;;3.95;;
68765;SDS011;55756;45.582;11.484;2024-03-29T12:57:50;14.88;;;4.40;;
68765;SDS011;55756;45.582;11.484;2024-03-29T13:00:22;10.50;;;3.53;;
68765;SDS011;55756;45.582;11.484;2024-03-29T13:02:48;12.20;;;3.30;;
68765;SDS011;55756;45.582;11.484;2024-03-29T13:05:14;12.63;;;3.42;;
68765;SDS011;55756;45.582;11.484;2024-03-29T13:07:40;11.43;;;3.97;;
68765;SDS011;55756;45.582;11.484;2024-03-29T13:10:07;12.10;;;3.97;;
68765;SDS011;55756;45.582;11.484;2024-03-29T13:12:41;13.15;;;4.28;;
68765;SDS011;55756;45.582;11.484;2024-03-29T13:15:26;14.07;;;4.50;;
68765;SDS011;55756;45.582;11.484;2024-03-29T13:17:53;15.43;;;4.13;;
68765;SDS011;55756;45.582;11.484;2024-03-29T13:20:21;13.55;;;4.72;;
68765;SDS011;55756;45.582;11.484;2024-03-29T13:22:48;17.00;;;3.95;;
68765;SDS011;55756;45.582;11.484;2024-03-29T13:25:15;13.57;;;4.75;;
68765;SDS011;55756;45.582;11.484;2024-03-29T13:27:42;14.90;;;4.60;;
68765;SDS011;55756;45.582;11.484;2024-03-29T13:30:10;16.90;;;6.05;;
68765;SDS011;55756;45.582;11.484;2024-03-29T13:32:41;16.77;;;4.47;;
68765;SDS011;55756;45.582;11.484;2024-03-29T13:35:08;16.77;;;4.88;;
68765;SDS011;55756;45.582;11.484;2024-03-29T13:37:40;12.23;;;4.15;;
68765;SDS011;55756;45.582;11.484;2024-03-29T13:40:12;15.80;;;4.70;;
68765;SDS011;55756;45.582;11.484;2024-03-29T13:42:39;12.68;;;3.65;;
68765;SDS011;55756;45.582;11.484;2024-03-29T13:45:06;14.18;;;4.05;;
68765;SDS011;55756;45.582;11.484;2024-03-29T13:47:33;15.43;;;4.20;;
68765;SDS011;55756;45.582;11.484;2024-03-29T13:49:59;13.70;;;3.65;;
68765;SDS011;55756;45.582;11.484;2024-03-29T13:52:25;15.48;;;4.55;;
68765;SDS011;55756;45.582;11.484;2024-03-29T13:54:53;15.27;;;3.42;;
68765;SDS011;55756;45.582;11.484;2024-03-29T13:57:19;16.08;;;4.25;;
68765;SDS011;55756;45.582;11.484;2024-03-29T13:59:46;15.40;;;4.10;;
68765;SDS011;55756;45.582;11.484;2024-03-29T14:02:12;15.57;;;4.30;;
68765;SDS011;55756;45.582;11.484;2024-03-29T14:04:42;14.80;;;4.32;;
68765;SDS011;55756;45.582;11.484;2024-03-29T14:07:09;14.35;;;3.38;;
68765;SDS011;55756;45.582;11.484;2024-03-29T14:09:45;17.40;;;4.22;;
68765;SDS011;55756;45.582;11.484;2024-03-29T14:12:11;12.25;;;2.90;;
68765;SDS011;55756;45.582;11.484;2024-03-29T14:14:38;16.10;;;4.13;;
68765;SDS011;55756;45.582;11.484;2024-03-29T14:17:04;14.25;;;4.13;;
68765;SDS011;55756;45.582;11.484;2024-03-29T14:19:38;17.27;;;4.07;;
68765;SDS011;55756;45.582;11.484;2024-03-29T14:22:04;15.80;;;4.15;;
68765;SDS011;55756;45.582;11.484;2024-03-29T14:24:31;14.52;;;4.00;;
68765;SDS011;55756;45.582;11.484;2024-03-29T14:27:01;17.10;;;4.07;;